Time;durP1;ratioP1;P1;durP2;ratioP2;P2;SDS_P1;SDS_P2;PMS_P1;PMS_P2;Temp;Humidity;BMP_temperature;BMP_pressure;BME280_temperature;BME280_humidity;BME280_pressure;Samples;Min_cycle;Max_cycle;Signal;HPM_P1;HPM_P2
2022/12/30 00:00:47;;;;;;;16.50;3.22;;;7.90;99.90;;;;;;5015722;28;92765;-79
2022/12/30 00:03:14;;;;;;;21.77;3.53;;;7.80;99.90;;;;;;5014358;28;95583;-78
2022/12/30 00:05:41;;;;;;;16.80;3.10;;;7.80;99.90;;;;;;5014395;28;95193;-80
2022/12/30 00:08:45;;;;;;;17.00;3.25;;;7.80;99.90;;;;;;5013973;28;93579;-79
2022/12/30 00:10:56;;;;;;;18.80;3.15;;;7.80;99.90;;;;;;5013567;28;92476;-79
2022/12/30 00:33:06;;;;;;;20.48;3.50;;;7.60;99.90;;;;;;5013860;28;92522;-79
2022/12/30 00:35:38;;;;;;;17.17;3.58;;;7.50;99.90;;;;;;5015394;28;93986;-79
2022/12/30 00:38:05;;;;;;;16.33;3.58;;;7.50;99.90;;;;;;4997366;28;95637;-79
2022/12/30 00:40:33;;;;;;;19.80;3.63;;;7.50;99.90;;;;;;5015438;28;92467;-79
2022/12/30 00:43:08;;;;;;;15.25;3.20;;;7.40;99.90;;;;;;5014205;28;92486;-79
2022/12/30 00:45:42;;;;;;;13.55;3.42;;;7.40;99.90;;;;;;5017322;28;93269;-79
2022/12/30 00:56:37;;;;;;;14.32;2.97;;;7.30;99.90;;;;;;5017179;28;97345;-79
2022/12/30 00:59:06;;;;;;;17.00;3.25;;;7.30;99.90;;;;;;4984198;28;97310;-80
2022/12/30 01:01:35;;;;;;;18.00;3.65;;;7.30;99.90;;;;;;5000672;28;92487;-79
2022/12/30 01:04:03;;;;;;;14.80;3.40;;;7.20;99.90;;;;;;5017241;28;92605;-79
2022/12/30 01:06:31;;;;;;;15.95;3.30;;;7.20;99.90;;;;;;5000564;28;97145;-78
2022/12/30 01:09:01;;;;;;;17.00;3.45;;;7.20;99.90;;;;;;5016746;28;92935;-78
2022/12/30 01:11:29;;;;;;;18.10;3.40;;;7.20;99.90;;;;;;5016968;28;92343;-79
2022/12/30 01:13:59;;;;;;;15.57;3.50;;;7.10;99.90;;;;;;5018627;28;91716;-78
2022/12/30 01:16:29;;;;;;;13.95;2.97;;;7.10;99.90;;;;;;5016904;28;93184;-78
2022/12/30 01:18:57;;;;;;;17.33;3.83;;;7.10;99.90;;;;;;4983843;28;95469;-79
2022/12/30 01:21:25;;;;;;;18.67;3.63;;;7.10;99.90;;;;;;5017002;28;94874;-79
2022/12/30 01:23:52;;;;;;;20.42;3.60;;;7.10;99.90;;;;;;5016836;28;92548;-78
2022/12/30 01:26:20;;;;;;;18.25;3.58;;;7.10;99.90;;;;;;5016745;28;93217;-78
2022/12/30 01:28:48;;;;;;;14.30;2.70;;;7.10;99.90;;;;;;5016388;28;95625;-78
2022/12/30 01:31:16;;;;;;;16.30;3.78;;;7.10;99.90;;;;;;5018268;28;92851;-79
2022/12/30 01:33:44;;;;;;;17.13;4.65;;;7.00;99.90;;;;;;5016663;28;92793;-78
2022/12/30 01:36:12;;;;;;;12.68;2.90;;;7.10;99.90;;;;;;5016313;28;96129;-78
2022/12/30 01:38:40;;;;;;;19.13;3.40;;;7.00;99.90;;;;;;5017148;28;92991;-79
2022/12/30 01:41:10;;;;;;;13.98;2.83;;;7.00;99.90;;;;;;5016663;28;92430;-78
2022/12/30 01:43:45;;;;;;;15.05;3.03;;;7.00;99.90;;;;;;5017763;28;92439;-79
2022/12/30 01:46:18;;;;;;;18.33;4.15;;;7.00;99.90;;;;;;5016170;28;96574;-79
2022/12/30 01:48:48;;;;;;;21.20;3.83;;;7.00;99.90;;;;;;5017790;28;95752;-79
2022/12/30 01:51:26;;;;;;;16.10;3.05;;;7.00;99.90;;;;;;5016653;28;92539;-79
2022/12/30 01:54:01;;;;;;;14.15;3.13;;;7.10;99.90;;;;;;5017655;28;93032;-79
2022/12/30 01:56:35;;;;;;;19.15;2.97;;;7.00;99.90;;;;;;5015478;28;95765;-79
2022/12/30 01:59:16;;;;;;;18.35;3.08;;;7.00;99.90;;;;;;5017131;28;94646;-79
2022/12/30 02:01:47;;;;;;;20.17;3.42;;;7.00;99.90;;;;;;5017543;28;93064;-79
2022/12/30 02:04:20;;;;;;;16.27;2.80;;;6.90;99.90;;;;;;5016193;28;91742;-79
2022/12/30 02:06:58;;;;;;;18.58;3.30;;;6.90;99.90;;;;;;5016014;28;94617;-79
2022/12/30 02:09:27;;;;;;;16.13;3.20;;;6.90;99.90;;;;;;4999010;28;95622;-79
2022/12/30 02:11:59;;;;;;;20.83;3.42;;;6.90;99.90;;;;;;5016284;28;94838;-79
2022/12/30 02:14:29;;;;;;;13.80;2.80;;;6.90;99.90;;;;;;5015932;28;92447;-78
2022/12/30 02:17:20;;;;;;;15.30;2.30;;;6.90;99.90;;;;;;5015344;28;93845;-78
2022/12/30 02:20:20;;;;;;;13.55;3.72;;;6.90;99.90;;;;;;5015553;28;94273;-79
2022/12/30 02:23:06;;;;;;;16.00;3.00;;;6.80;99.90;;;;;;5017522;28;92868;-79
2022/12/30 02:25:39;;;;;;;13.23;2.78;;;6.80;99.90;;;;;;5015664;28;92991;-80
2022/12/30 02:28:29;;;;;;;16.58;2.72;;;6.80;99.90;;;;;;4999630;28;97136;-78
2022/12/30 02:31:32;;;;;;;21.88;3.50;;;6.70;99.90;;;;;;5016146;28;94732;-78
2022/12/30 02:34:08;;;;;;;13.10;2.75;;;6.70;99.90;;;;;;5015245;28;92425;-79
2022/12/30 02:36:58;;;;;;;20.55;3.45;;;6.70;99.90;;;;;;5015584;28;92483;-79
2022/12/30 02:39:50;;;;;;;11.10;3.08;;;6.60;99.90;;;;;;5014033;28;96785;-79
2022/12/30 02:45:45;;;;;;;13.55;2.97;;;6.60;99.90;;;;;;5015691;28;92875;-79
2022/12/30 02:48:26;;;;;;;22.27;3.47;;;6.50;99.90;;;;;;4999424;28;92982;-79
2022/12/30 02:53:42;;;;;;;13.82;3.03;;;6.40;99.90;;;;;;5016627;28;93349;-79
2022/12/30 02:56:13;;;;;;;13.75;3.42;;;6.40;99.90;;;;;;5015435;28;93067;-79
2022/12/30 02:58:48;;;;;;;19.58;3.22;;;6.40;99.90;;;;;;5015532;28;91743;-79
2022/12/30 03:05:05;;;;;;;19.75;3.90;;;6.40;99.90;;;;;;5004572;28;92543;-79
2022/12/30 03:07:40;;;;;;;15.13;2.88;;;6.30;99.90;;;;;;5013952;28;94838;-79
2022/12/30 03:13:25;;;;;;;18.77;4.05;;;6.30;99.90;;;;;;5036510;28;94974;-79
2022/12/30 03:16:05;;;;;;;14.82;3.60;;;6.30;99.90;;;;;;5036241;28;94970;-79
2022/12/30 03:18:34;;;;;;;21.67;3.53;;;6.30;99.90;;;;;;5001683;28;92543;-79
2022/12/30 03:21:04;;;;;;;15.50;3.33;;;6.30;99.90;;;;;;5036425;28;92453;-79
2022/12/30 03:29:13;;;;;;;16.52;3.00;;;6.20;99.90;;;;;;5036521;28;92398;-78
2022/12/30 03:31:41;;;;;;;20.15;3.30;;;6.20;99.90;;;;;;5018194;28;92498;-78
2022/12/30 03:34:09;;;;;;;12.23;2.30;;;6.20;99.90;;;;;;5016457;28;98727;-78
2022/12/30 03:36:45;;;;;;;15.55;2.83;;;6.20;99.90;;;;;;5001746;28;95512;-78
2022/12/30 03:39:15;;;;;;;18.55;3.42;;;6.20;99.90;;;;;;5002320;28;93274;-78
2022/12/30 03:41:47;;;;;;;21.23;4.28;;;6.20;99.90;;;;;;5035927;28;92370;-78
2022/12/30 03:44:17;;;;;;;17.05;4.45;;;6.20;99.90;;;;;;5036291;28;93174;-78
2022/12/30 03:46:46;;;;;;;17.00;4.20;;;6.20;99.90;;;;;;5018084;28;92993;-78
2022/12/30 03:49:15;;;;;;;19.75;4.18;;;6.10;99.90;;;;;;5018496;28;92487;-78
2022/12/30 03:51:43;;;;;;;20.25;4.40;;;6.10;99.90;;;;;;5018393;28;91681;-78
2022/12/30 03:54:10;;;;;;;14.80;4.03;;;6.10;99.90;;;;;;5001301;28;95727;-78
2022/12/30 03:56:38;;;;;;;17.45;3.92;;;6.00;99.90;;;;;;5018256;28;93763;-78
2022/12/30 03:59:06;;;;;;;14.88;4.10;;;6.10;99.90;;;;;;5017181;28;94983;-78
2022/12/30 04:01:34;;;;;;;18.65;4.10;;;6.00;99.90;;;;;;5018040;28;92488;-78
2022/12/30 04:04:02;;;;;;;19.40;4.57;;;6.00;99.90;;;;;;5017498;28;94667;-78
2022/12/30 04:06:29;;;;;;;19.63;4.80;;;6.00;99.90;;;;;;5017878;28;94198;-78
2022/12/30 04:09:00;;;;;;;11.48;4.97;;;6.00;99.90;;;;;;5014829;28;92451;-78
2022/12/30 04:11:27;;;;;;;17.98;4.07;;;6.00;99.90;;;;;;4997919;28;92725;-78
2022/12/30 04:13:55;;;;;;;21.13;4.63;;;5.90;99.90;;;;;;5015723;28;93230;-78
2022/12/30 04:16:23;;;;;;;15.00;3.97;;;6.00;99.90;;;;;;5014536;28;94462;-78
2022/12/30 04:18:51;;;;;;;14.57;4.00;;;6.00;99.90;;;;;;5014050;28;92340;-78
2022/12/30 04:21:19;;;;;;;17.83;4.18;;;6.00;99.90;;;;;;4997814;28;92469;-78
2022/12/30 04:23:47;;;;;;;18.02;4.40;;;6.00;99.90;;;;;;5013500;28;95799;-78
2022/12/30 04:26:14;;;;;;;14.68;3.78;;;6.10;99.90;;;;;;4981438;28;96416;-78
2022/12/30 04:28:42;;;;;;;16.15;4.05;;;6.20;99.90;;;;;;5014503;28;93004;-78
2022/12/30 04:31:11;;;;;;;17.27;3.45;;;6.20;99.90;;;;;;5015583;28;92500;-78
2022/12/30 04:33:39;;;;;;;12.07;3.22;;;6.20;99.90;;;;;;4997281;28;93284;-78
2022/12/30 04:36:08;;;;;;;13.40;4.38;;;6.20;99.90;;;;;;5013905;28;97231;-79
2022/12/30 04:38:36;;;;;;;10.50;3.28;;;6.20;99.90;;;;;;5013828;28;92519;-79
2022/12/30 04:41:04;;;;;;;15.13;3.42;;;6.20;99.90;;;;;;4998152;28;91689;-78
2022/12/30 04:43:32;;;;;;;13.20;3.45;;;6.10;99.90;;;;;;5013451;28;96959;-79
2022/12/30 04:45:59;;;;;;;16.23;3.30;;;6.10;99.90;;;;;;5015075;28;92787;-79
2022/12/30 04:48:29;;;;;;;16.58;3.47;;;6.00;99.90;;;;;;5013036;28;94821;-79
2022/12/30 04:50:57;;;;;;;11.88;4.45;;;6.00;99.90;;;;;;5013766;28;92503;-79
2022/12/30 04:53:24;;;;;;;15.10;3.50;;;6.00;99.90;;;;;;5013732;28;95268;-79
2022/12/30 04:55:53;;;;;;;18.05;4.00;;;5.90;99.90;;;;;;5013749;28;92903;-79
2022/12/30 04:58:21;;;;;;;13.07;3.25;;;5.90;99.90;;;;;;5015627;28;92923;-79
2022/12/30 05:00:51;;;;;;;17.00;4.10;;;5.90;99.90;;;;;;4964314;28;92585;-79
2022/12/30 05:03:19;;;;;;;13.77;3.58;;;5.90;99.90;;;;;;4997043;28;94897;-79
2022/12/30 05:05:47;;;;;;;10.82;3.90;;;5.80;99.90;;;;;;5015508;28;92185;-79
2022/12/30 05:08:15;;;;;;;13.13;3.70;;;5.80;99.90;;;;;;4983012;28;92766;-79
2022/12/30 05:10:45;;;;;;;11.45;3.00;;;5.80;99.90;;;;;;5017414;28;92816;-79
2022/12/30 05:13:13;;;;;;;10.77;3.45;;;5.80;99.90;;;;;;5034034;28;95671;-79
2022/12/30 05:15:41;;;;;;;12.05;3.42;;;5.70;99.90;;;;;;5016701;28;98150;-79
2022/12/30 05:18:10;;;;;;;14.48;3.65;;;5.70;99.90;;;;;;5017852;28;92374;-79
2022/12/30 05:20:39;;;;;;;13.35;3.58;;;5.70;99.90;;;;;;5035084;28;92559;-79
2022/12/30 05:26:13;;;;;;;10.43;3.10;;;5.70;99.90;;;;;;5016872;28;94445;-79
2022/12/30 05:26:28;;;;;;;14.52;3.40;;;5.70;99.90;;;;;;5019902;28;93079;-79
2022/12/30 05:28:49;;;;;;;15.40;3.60;;;5.70;99.90;;;;;;5032099;27;92477;-79
2022/12/30 05:31:18;;;;;;;15.27;3.60;;;5.70;99.90;;;;;;5020027;28;92195;-79
2022/12/30 05:33:46;;;;;;;11.07;2.83;;;5.70;99.90;;;;;;5037992;28;92518;-79
2022/12/30 05:36:14;;;;;;;15.10;3.30;;;5.70;99.90;;;;;;5021149;28;92873;-78
2022/12/30 05:38:42;;;;;;;15.10;3.60;;;5.60;99.90;;;;;;5037293;28;94811;-79
2022/12/30 05:41:11;;;;;;;15.60;3.90;;;5.70;99.90;;;;;;5021253;28;92969;-79
2022/12/30 05:43:46;;;;;;;17.45;3.50;;;5.60;99.90;;;;;;5038357;28;92996;-79
2022/12/30 05:46:14;;;;;;;15.57;3.42;;;5.60;99.90;;;;;;5020342;28;92477;-79
2022/12/30 05:48:42;;;;;;;13.35;2.92;;;5.60;99.90;;;;;;5038340;28;92384;-79
2022/12/30 05:51:09;;;;;;;10.80;3.50;;;5.60;99.90;;;;;;5020198;28;92503;-79
2022/12/30 05:53:37;;;;;;;13.80;2.90;;;5.60;99.90;;;;;;5019741;28;96194;-79
2022/12/30 05:56:05;;;;;;;13.02;2.80;;;5.60;99.90;;;;;;5037927;28;92930;-79
2022/12/30 05:58:33;;;;;;;12.73;3.10;;;5.60;99.90;;;;;;5003068;28;92448;-79
2022/12/30 06:01:01;;;;;;;14.57;2.95;;;5.60;99.90;;;;;;5019674;28;93040;-79
2022/12/30 06:03:30;;;;;;;17.48;3.58;;;5.60;99.90;;;;;;5002380;28;95689;-78
2022/12/30 06:06:00;;;;;;;22.48;3.50;;;5.70;99.90;;;;;;5019101;28;99025;-78
2022/12/30 06:08:28;;;;;;;15.68;3.17;;;5.60;99.90;;;;;;5019444;28;92601;-79
2022/12/30 06:10:56;;;;;;;9.20;2.83;;;5.70;99.90;;;;;;5003090;28;92330;-79
2022/12/30 06:13:24;;;;;;;18.48;3.35;;;5.70;99.90;;;;;;4986228;28;95592;-79
2022/12/30 06:15:51;;;;;;;10.95;2.38;;;5.70;99.90;;;;;;5019180;28;94113;-79
2022/12/30 06:18:20;;;;;;;12.00;3.03;;;5.70;99.90;;;;;;5019813;28;92543;-78
2022/12/30 06:20:48;;;;;;;7.53;2.88;;;5.60;99.90;;;;;;5019910;28;91928;-78
2022/12/30 06:23:16;;;;;;;14.60;3.60;;;5.70;99.90;;;;;;5019275;28;95056;-78
2022/12/30 06:25:44;;;;;;;11.25;3.42;;;5.70;99.90;;;;;;5018993;28;95784;-78
2022/12/30 06:28:11;;;;;;;12.18;3.22;;;5.70;99.90;;;;;;5002064;28;94845;-78
2022/12/30 06:30:39;;;;;;;14.50;3.60;;;5.70;99.90;;;;;;5037373;28;92496;-78
2022/12/30 06:33:08;;;;;;;17.33;3.38;;;5.70;99.90;;;;;;5037117;28;93541;-78
2022/12/30 06:35:36;;;;;;;13.98;3.47;;;5.70;99.90;;;;;;5019065;28;93290;-78
2022/12/30 06:38:03;;;;;;;11.27;3.13;;;5.70;99.90;;;;;;5003201;28;92409;-78
2022/12/30 06:40:31;;;;;;;12.95;2.95;;;5.70;99.90;;;;;;5002958;28;92482;-78
2022/12/30 06:42:58;;;;;;;11.25;3.20;;;5.70;99.90;;;;;;5019150;28;95323;-78
2022/12/30 06:45:26;;;;;;;15.75;3.53;;;5.70;99.90;;;;;;5019696;28;93008;-78
2022/12/30 06:47:53;;;;;;;16.38;3.28;;;5.70;99.90;;;;;;5036955;28;92396;-78
2022/12/30 06:50:20;;;;;;;13.48;3.03;;;5.60;99.90;;;;;;5003084;28;92633;-78
2022/12/30 06:52:49;;;;;;;14.38;2.70;;;5.70;99.90;;;;;;5000945;28;98759;-78
2022/12/30 06:55:17;;;;;;;19.23;3.25;;;5.60;99.90;;;;;;5018712;28;95470;-78
2022/12/30 06:57:44;;;;;;;16.42;3.00;;;5.70;99.90;;;;;;5019361;28;92981;-78
2022/12/30 07:00:12;;;;;;;15.93;2.95;;;5.70;99.90;;;;;;5002262;28;92637;-78
2022/12/30 07:02:40;;;;;;;10.07;2.75;;;5.60;99.90;;;;;;5036674;28;93220;-78
2022/12/30 07:05:08;;;;;;;11.38;3.13;;;5.60;99.90;;;;;;4985242;28;96192;-78
2022/12/30 07:07:35;;;;;;;18.48;2.90;;;5.70;99.90;;;;;;5036836;28;92499;-78
2022/12/30 07:10:03;;;;;;;11.07;2.30;;;5.70;99.90;;;;;;5018870;28;92478;-78
2022/12/30 07:12:30;;;;;;;16.58;2.85;;;5.70;99.90;;;;;;5018676;28;94473;-78
2022/12/30 07:14:57;;;;;;;15.10;2.85;;;5.70;99.90;;;;;;5035875;28;93038;-78
2022/12/30 07:17:24;;;;;;;11.73;3.10;;;5.80;99.90;;;;;;5001423;28;95008;-78
2022/12/30 07:19:52;;;;;;;12.18;2.75;;;5.70;99.90;;;;;;5018203;28;92500;-78
2022/12/30 07:22:19;;;;;;;12.00;2.75;;;5.70;99.90;;;;;;5018128;28;93511;-78
2022/12/30 07:24:47;;;;;;;10.38;2.65;;;5.70;99.90;;;;;;5036198;28;95316;-78
2022/12/30 07:27:14;;;;;;;12.27;2.85;;;5.70;99.90;;;;;;4984881;28;92421;-78
2022/12/30 07:29:41;;;;;;;14.40;2.97;;;5.70;99.90;;;;;;5018472;28;92529;-78
2022/12/30 07:32:10;;;;;;;12.35;3.70;;;5.80;99.90;;;;;;5001514;28;92524;-78
2022/12/30 07:34:37;;;;;;;8.43;2.22;;;5.80;99.90;;;;;;5036448;28;93090;-78
2022/12/30 07:37:12;;;;;;;9.10;2.58;;;5.80;99.90;;;;;;5036173;28;92375;-79
2022/12/30 07:39:40;;;;;;;13.25;2.70;;;5.80;99.90;;;;;;5018920;28;93149;-78
2022/12/30 07:42:08;;;;;;;14.48;3.10;;;5.90;99.90;;;;;;5000522;28;95400;-79
2022/12/30 07:44:42;;;;;;;8.90;1.90;;;5.90;99.90;;;;;;5001725;28;94340;-79
2022/12/30 07:47:10;;;;;;;13.63;2.75;;;5.90;99.90;;;;;;5036276;28;92652;-79
2022/12/30 07:49:40;;;;;;;14.23;3.58;;;5.90;99.90;;;;;;5036028;28;92385;-79
2022/12/30 07:52:08;;;;;;;16.10;2.53;;;5.90;99.90;;;;;;5001921;27;93236;-79
2022/12/30 07:54:36;;;;;;;11.20;2.42;;;5.90;99.90;;;;;;5000509;28;95806;-79
2022/12/30 07:57:04;;;;;;;10.20;3.15;;;5.90;99.90;;;;;;5001387;28;92387;-79
2022/12/30 07:59:31;;;;;;;10.30;1.85;;;5.90;99.90;;;;;;4985331;28;91821;-79
2022/12/30 08:01:59;;;;;;;14.05;2.78;;;5.90;99.90;;;;;;5018307;28;93781;-79
2022/12/30 08:04:27;;;;;;;12.10;2.95;;;5.90;99.90;;;;;;5035830;28;92384;-79
2022/12/30 08:07:16;;;;;;;13.23;3.72;;;6.00;99.90;;;;;;5016256;28;94963;-79
2022/12/30 08:09:44;;;;;;;12.68;2.45;;;6.00;99.90;;;;;;5034580;28;92465;-79
2022/12/30 08:12:12;;;;;;;8.00;2.50;;;6.00;99.90;;;;;;5018013;28;93197;-79
2022/12/30 08:14:40;;;;;;;8.48;2.53;;;6.00;99.90;;;;;;5017895;28;92548;-79
2022/12/30 08:17:07;;;;;;;11.57;3.10;;;6.00;99.90;;;;;;5001663;28;92491;-79
2022/12/30 08:19:35;;;;;;;12.57;2.67;;;6.10;99.90;;;;;;5001242;28;92545;-79
2022/12/30 08:22:03;;;;;;;13.95;3.17;;;6.10;99.90;;;;;;5001625;28;94831;-79
2022/12/30 08:24:31;;;;;;;14.77;3.40;;;6.20;99.90;;;;;;5035796;28;93226;-79
2022/12/30 08:27:01;;;;;;;12.52;2.95;;;6.20;99.90;;;;;;5018717;28;92464;-79
2022/12/30 08:29:29;;;;;;;11.20;2.70;;;6.30;99.90;;;;;;5017520;28;92538;-79
2022/12/30 08:31:57;;;;;;;6.65;2.58;;;6.30;99.90;;;;;;5034126;28;96070;-79
2022/12/30 08:34:25;;;;;;;10.95;3.03;;;6.30;99.90;;;;;;5017350;28;95654;-79
2022/12/30 08:36:56;;;;;;;16.17;2.83;;;6.40;99.90;;;;;;5000885;28;92453;-79
2022/12/30 08:39:25;;;;;;;10.52;2.58;;;6.40;99.90;;;;;;5017639;28;92517;-79
2022/12/30 08:41:53;;;;;;;10.57;2.70;;;6.50;99.90;;;;;;5035296;28;92407;-79
2022/12/30 08:44:24;;;;;;;22.58;11.30;;;6.50;99.90;;;;;;5035123;28;94789;-79
2022/12/30 08:46:52;;;;;;;11.55;2.70;;;6.50;99.90;;;;;;5016780;28;92452;-79
2022/12/30 08:49:26;;;;;;;12.48;3.38;;;6.60;99.90;;;;;;5001077;28;91784;-79
2022/12/30 08:51:54;;;;;;;8.75;3.55;;;6.70;99.90;;;;;;5017484;28;93241;-79
2022/12/30 08:54:22;;;;;;;11.60;4.30;;;6.70;99.90;;;;;;5000053;28;95691;-79
2022/12/30 08:56:51;;;;;;;10.63;5.38;;;6.70;99.90;;;;;;4999418;28;94895;-79
2022/12/30 08:59:18;;;;;;;9.70;3.10;;;6.70;99.90;;;;;;5016820;28;92543;-79
2022/12/30 09:01:46;;;;;;;11.90;7.50;;;6.80;99.90;;;;;;5016655;28;95870;-79
2022/12/30 09:04:14;;;;;;;11.13;4.05;;;6.80;99.90;;;;;;5035499;27;93364;-79
2022/12/30 09:06:42;;;;;;;14.45;7.55;;;6.90;99.90;;;;;;5003885;28;92413;-79
2022/12/30 09:09:13;;;;;;;9.10;3.58;;;7.00;99.90;;;;;;5034183;28;93634;-79
2022/12/30 09:11:43;;;;;;;11.63;4.25;;;7.00;99.90;;;;;;5017355;28;93194;-79
2022/12/30 09:14:18;;;;;;;8.25;2.35;;;7.10;99.90;;;;;;5018648;28;94386;-79
2022/12/30 09:16:46;;;;;;;8.20;2.80;;;7.10;99.90;;;;;;5017008;28;92535;-79
2022/12/30 09:19:16;;;;;;;8.52;2.63;;;7.10;99.90;;;;;;5018260;28;93490;-79
2022/12/30 09:21:47;;;;;;;8.97;3.97;;;7.20;99.90;;;;;;5016487;28;95830;-79
2022/12/30 09:24:15;;;;;;;6.38;2.90;;;7.20;99.90;;;;;;5018058;28;97176;-79
2022/12/30 09:26:43;;;;;;;6.97;2.85;;;7.30;99.90;;;;;;5000574;28;92423;-79
2022/12/30 09:29:16;;;;;;;18.77;4.63;;;7.30;99.90;;;;;;5016544;28;92577;-79
2022/12/30 09:31:46;;;;;;;12.05;3.30;;;7.40;99.90;;;;;;5016720;28;95109;-79
2022/12/30 09:34:14;;;;;;;9.88;2.85;;;7.40;99.90;;;;;;5000059;28;96033;-79
2022/12/30 09:36:42;;;;;;;10.20;2.55;;;7.50;99.90;;;;;;5000266;28;92561;-79
2022/12/30 09:39:11;;;;;;;8.60;2.50;;;7.50;99.90;;;;;;5018461;28;92391;-79
2022/12/30 09:45:26;;;;;;;7.93;2.08;;;7.70;99.90;;;;;;5017534;28;94279;-79
2022/12/30 09:48:02;;;;;;;4.65;1.90;;;7.70;99.90;;;;;;5015319;28;95015;-79
2022/12/30 09:50:48;;;;;;;6.82;2.33;;;7.70;99.90;;;;;;5016119;28;92375;-79
2022/12/30 09:53:28;;;;;;;8.52;2.13;;;7.70;99.90;;;;;;5017787;28;93255;-79
2022/12/30 09:56:17;;;;;;;11.20;2.60;;;7.80;99.90;;;;;;5017562;28;94307;-79
2022/12/30 09:58:51;;;;;;;12.27;3.08;;;7.80;99.90;;;;;;5015999;28;92479;-79
2022/12/30 10:01:47;;;;;;;16.58;6.57;;;7.80;99.90;;;;;;4985194;28;92433;-79
2022/12/30 10:04:19;;;;;;;9.98;5.38;;;7.90;99.90;;;;;;5016214;28;93658;-79
2022/12/30 10:07:27;;;;;;;10.60;2.92;;;7.90;99.90;;;;;;5016634;28;93331;-79
2022/12/30 10:10:05;;;;;;;13.30;11.90;;;8.00;99.90;;;;;;5015428;28;93102;-79
2022/12/30 10:12:41;;;;;;;8.05;5.55;;;8.10;99.90;;;;;;5015096;28;92523;-79
2022/12/30 10:15:15;;;;;;;9.88;3.03;;;8.10;99.90;;;;;;5015867;28;97343;-79
2022/12/30 10:17:44;;;;;;;6.30;3.00;;;8.20;99.90;;;;;;5014435;28;96730;-79
2022/12/30 10:20:39;;;;;;;7.70;2.95;;;8.30;99.90;;;;;;5015861;28;92441;-79
2022/12/30 10:23:21;;;;;;;8.43;2.95;;;8.30;99.90;;;;;;5016353;28;92531;-79
2022/12/30 10:26:11;;;;;;;6.72;2.40;;;8.30;99.90;;;;;;5032208;28;94589;-79
2022/12/30 10:29:05;;;;;;;10.30;2.42;;;8.40;99.90;;;;;;5015883;28;92519;-79
2022/12/30 10:31:35;;;;;;;8.07;2.70;;;8.40;99.90;;;;;;5015929;28;92470;-79
2022/12/30 10:34:30;;;;;;;10.85;2.60;;;8.50;99.90;;;;;;5015988;28;91793;-79
2022/12/30 10:37:10;;;;;;;4.80;2.63;;;8.60;99.90;;;;;;5015704;28;92474;-79
2022/12/30 10:39:50;;;;;;;8.45;2.70;;;8.60;99.90;;;;;;5017117;28;93036;-79
2022/12/30 10:42:52;;;;;;;7.55;3.15;;;8.70;99.90;;;;;;5014290;28;94905;-79
2022/12/30 10:45:34;;;;;;;9.05;3.17;;;8.90;99.90;;;;;;4999228;28;93119;-79
2022/12/30 10:48:16;;;;;;;6.57;2.67;;;8.90;99.90;;;;;;5016633;28;94716;-79
2022/12/30 10:50:49;;;;;;;8.30;2.10;;;8.90;99.90;;;;;;5016461;28;93143;-79
2022/12/30 10:53:27;;;;;;;8.68;2.60;;;9.00;99.90;;;;;;5015649;28;92530;-79
2022/12/30 10:56:03;;;;;;;9.02;2.40;;;9.00;99.90;;;;;;5016307;28;92446;-78
2022/12/30 10:58:37;;;;;;;6.00;2.25;;;9.10;99.90;;;;;;5014930;28;96647;-79
2022/12/30 11:01:09;;;;;;;5.47;1.67;;;9.20;99.90;;;;;;5016921;28;93176;-79
2022/12/30 11:03:43;;;;;;;15.27;5.35;;;9.20;99.90;;;;;;5015208;28;92502;-79
2022/12/30 11:06:32;;;;;;;8.75;2.28;;;9.30;99.90;;;;;;5015608;28;92985;-78
2022/12/30 11:09:11;;;;;;;7.97;2.72;;;9.40;99.90;;;;;;5016661;28;95601;-78
2022/12/30 11:15:01;;;;;;;7.63;3.50;;;9.40;99.90;;;;;;5017749;28;92630;-79
2022/12/30 11:17:49;;;;;;;9.00;3.45;;;9.50;99.90;;;;;;5018412;28;92491;-79
2022/12/30 11:20:16;;;;;;;6.93;2.33;;;9.40;99.90;;;;;;5018354;28;95891;-79
2022/12/30 11:22:49;;;;;;;8.52;2.42;;;9.40;99.90;;;;;;5017463;28;96303;-79
2022/12/30 11:25:24;;;;;;;6.22;2.33;;;9.40;99.90;;;;;;5018637;28;92521;-79
2022/12/30 11:27:56;;;;;;;7.75;2.10;;;9.30;99.90;;;;;;5017228;28;91742;-79
2022/12/30 11:30:45;;;;;;;6.03;1.80;;;9.30;99.90;;;;;;5018098;28;92601;-79
2022/12/30 11:33:21;;;;;;;4.60;1.35;;;9.30;99.90;;;;;;5018691;28;93321;-79
2022/12/30 11:35:50;;;;;;;5.80;2.28;;;9.30;99.90;;;;;;5016946;28;94907;-79
2022/12/30 11:38:32;;;;;;;6.10;1.83;;;9.30;99.90;;;;;;5018252;28;92484;-78
2022/12/30 11:41:24;;;;;;;6.82;1.70;;;9.40;99.90;;;;;;5036137;28;93236;-79
2022/12/30 11:44:14;;;;;;;4.15;1.80;;;9.50;99.90;;;;;;5035495;28;94360;-79
2022/12/30 11:46:49;;;;;;;5.50;1.73;;;9.60;99.90;;;;;;5035957;28;92385;-79
2022/12/30 11:49:32;;;;;;;6.35;1.73;;;9.60;99.90;;;;;;5036034;28;92474;-79
2022/12/30 11:52:07;;;;;;;4.15;1.45;;;9.60;99.90;;;;;;5017508;28;95086;-78
2022/12/30 11:54:50;;;;;;;3.42;1.38;;;9.60;99.90;;;;;;5035899;28;94548;-79
2022/12/30 11:57:30;;;;;;;8.18;1.88;;;9.70;99.90;;;;;;5017685;28;93929;-79
2022/12/30 12:00:01;;;;;;;4.55;1.83;;;9.80;99.90;;;;;;5017037;28;92385;-79
2022/12/30 12:02:45;;;;;;;27.27;15.13;;;9.80;99.90;;;;;;5002757;28;94943;-79
2022/12/30 12:05:22;;;;;;;50.88;24.88;;;9.90;99.90;;;;;;5035044;28;95382;-79
2022/12/30 12:07:53;;;;;;;19.27;7.82;;;9.90;99.90;;;;;;5017174;28;92546;-79
2022/12/30 12:10:24;;;;;;;8.68;7.07;;;9.90;99.90;;;;;;5035085;28;92446;-79
2022/12/30 12:13:01;;;;;;;5.03;2.28;;;10.00;99.90;;;;;;5017658;28;93359;-79
2022/12/30 12:15:53;;;;;;;7.95;2.90;;;10.00;99.90;;;;;;5035627;28;93369;-79
2022/12/30 12:18:42;;;;;;;4.13;1.90;;;10.10;99.90;;;;;;5023778;28;92589;-79
2022/12/30 12:21:14;;;;;;;4.57;1.55;;;10.10;99.90;;;;;;5018072;28;91779;-79
2022/12/30 12:24:10;;;;;;;6.20;1.70;;;10.10;99.90;;;;;;5034979;28;94618;-79
2022/12/30 12:27:00;;;;;;;3.17;1.70;;;10.10;99.90;;;;;;5035355;28;92984;-79
2022/12/30 12:29:28;;;;;;;4.55;1.40;;;10.10;99.90;;;;;;5000143;28;94970;-79
2022/12/30 12:31:59;;;;;;;3.65;1.50;;;10.10;99.90;;;;;;5000590;28;92655;-79
2022/12/30 12:35:25;;;;;;;5.70;1.60;;;10.10;99.90;;;;;;5035050;28;94587;-79
2022/12/30 12:38:08;;;;;;;3.63;1.70;;;10.00;99.90;;;;;;5017348;28;92984;-79
2022/12/30 12:40:47;;;;;;;5.72;1.20;;;10.00;99.90;;;;;;5020444;28;92478;-79
2022/12/30 12:43:15;;;;;;;2.63;1.73;;;10.00;99.90;;;;;;5020632;28;92528;-79
2022/12/30 12:46:05;;;;;;;4.05;1.52;;;10.00;99.90;;;;;;5038879;28;93275;-79
2022/12/30 12:48:56;;;;;;;2.13;1.80;;;10.10;99.90;;;;;;5039125;28;92943;-79
2022/12/30 12:51:41;;;;;;;7.32;1.40;;;10.00;99.90;;;;;;5020621;28;92511;-80
2022/12/30 12:54:38;;;;;;;4.40;1.50;;;10.10;99.90;;;;;;5020561;28;92519;-79
2022/12/30 12:58:03;;;;;;;4.03;1.30;;;10.10;99.90;;;;;;5019020;28;98834;-79
2022/12/30 13:00:49;;;;;;;2.63;1.58;;;10.10;99.90;;;;;;4994803;28;96780;-80
2022/12/30 13:04:08;;;;;;;2.13;1.20;;;10.10;99.90;;;;;;5038657;28;92511;-79
2022/12/30 13:06:59;;;;;;;7.82;4.50;;;10.20;99.90;;;;;;4967033;28;92767;-79
2022/12/30 13:10:04;;;;;;;2.97;1.83;;;10.10;99.90;;;;;;5016982;28;93500;-79
2022/12/30 13:12:46;;;;;;;5.10;3.72;;;10.20;99.90;;;;;;5017583;28;93834;-79
2022/12/30 13:15:26;;;;;;;4.25;2.15;;;10.20;99.90;;;;;;5018172;28;92582;-79
2022/12/30 13:17:58;;;;;;;5.03;2.38;;;10.20;99.90;;;;;;5017216;28;91793;-79
2022/12/30 13:20:45;;;;;;;5.30;1.90;;;10.20;99.90;;;;;;5017010;28;93616;-79
2022/12/30 13:23:17;;;;;;;4.07;2.92;;;10.30;99.90;;;;;;5016791;28;95940;-79
2022/12/30 13:26:07;;;;;;;6.40;2.85;;;10.30;99.90;;;;;;5032330;28;94804;-79
2022/12/30 13:28:35;;;;;;;2.75;1.20;;;10.30;99.90;;;;;;5016694;28;92499;-80
2022/12/30 13:31:19;;;;;;;3.92;1.83;;;10.20;99.90;;;;;;5017755;28;95137;-79
2022/12/30 13:34:09;;;;;;;4.00;1.30;;;10.30;99.90;;;;;;5016565;28;94495;-79
2022/12/30 13:36:53;;;;;;;4.82;2.03;;;10.20;99.90;;;;;;5016532;28;92671;-79
2022/12/30 13:39:33;;;;;;;7.40;2.13;;;10.20;99.90;;;;;;5016939;28;92961;-79
2022/12/30 13:42:34;;;;;;;4.10;1.30;;;10.20;99.90;;;;;;5015901;28;95014;-80
2022/12/30 13:45:09;;;;;;;3.40;1.58;;;10.20;99.90;;;;;;4999747;28;94281;-79
2022/12/30 13:47:41;;;;;;;2.50;1.35;;;10.20;99.90;;;;;;5017896;28;92387;-80
2022/12/30 13:50:30;;;;;;;15.20;13.73;;;10.20;99.90;;;;;;5017006;28;92522;-79
2022/12/30 13:53:00;;;;;;;19.02;17.35;;;10.20;99.90;;;;;;5015638;28;95606;-79
2022/12/30 13:55:36;;;;;;;9.73;8.77;;;10.20;99.90;;;;;;5015529;28;96809;-79
2022/12/30 13:58:18;;;;;;;6.20;4.35;;;10.20;99.90;;;;;;5017248;28;92343;-79
2022/12/30 14:00:46;;;;;;;5.32;2.20;;;10.20;99.90;;;;;;4999818;28;92633;-79
2022/12/30 14:03:36;;;;;;;4.25;1.90;;;10.20;99.90;;;;;;5017220;28;93556;-79
2022/12/30 14:06:42;;;;;;;4.10;2.45;;;10.10;99.90;;;;;;5017343;28;93015;-79
2022/12/30 14:09:19;;;;;;;2.30;1.77;;;10.10;99.90;;;;;;5021557;28;92388;-79
2022/12/30 14:12:02;;;;;;;4.03;1.58;;;10.10;99.90;;;;;;5019790;28;91820;-79
2022/12/30 14:14:34;;;;;;;4.13;1.65;;;10.20;99.90;;;;;;5037339;28;93002;-79
2022/12/30 14:17:16;;;;;;;6.18;2.38;;;10.10;99.90;;;;;;4986422;28;96413;-79